createdAt,value
2022-09-20T00:01:02.430Z,13.92
2022-09-20T00:02:35.487Z,13.95
2022-09-20T00:04:08.011Z,13.98
2022-09-20T00:05:41.088Z,14.00
2022-09-20T00:07:12.503Z,14.02
2022-09-20T00:08:44.226Z,14.03
2022-09-20T00:10:15.759Z,14.04
2022-09-20T00:11:47.279Z,14.06
2022-09-20T00:13:18.688Z,14.07
2022-09-20T00:14:50.133Z,14.09
2022-09-20T00:16:22.575Z,14.09
2022-09-20T00:17:55.536Z,14.07
2022-09-20T00:19:27.646Z,14.03
2022-09-20T00:20:59.068Z,13.96
2022-09-20T00:22:30.560Z,13.87
2022-09-20T00:24:02.329Z,13.80
2022-09-20T00:25:33.790Z,13.72
2022-09-20T00:27:05.573Z,13.72
2022-09-20T00:28:37.103Z,13.73
2022-09-20T00:30:09.162Z,13.79
2022-09-20T00:31:42.720Z,13.80
2022-09-20T00:33:15.768Z,13.77
2022-09-20T00:35:05.834Z,13.76
2022-09-20T00:36:37.272Z,13.76
2022-09-20T00:38:08.961Z,13.77
2022-09-20T00:39:40.403Z,13.76
2022-09-20T00:41:11.852Z,13.83
2022-09-20T00:42:43.311Z,13.86
2022-09-20T00:44:33.057Z,13.84
2022-09-20T00:46:05.282Z,13.80
2022-09-20T00:47:40.270Z,13.76
2022-09-20T00:49:15.012Z,13.73
2022-09-20T00:50:49.560Z,13.69
2022-09-20T00:52:21.563Z,13.70
2022-09-20T00:53:54.699Z,13.68
2022-09-20T00:55:27.105Z,13.64
2022-09-20T00:56:58.844Z,13.66
2022-09-20T00:58:33.334Z,13.69
2022-09-20T01:00:07.246Z,13.69
2022-09-20T01:01:38.808Z,13.69
2022-09-20T01:03:11.215Z,13.64
2022-09-20T01:04:44.903Z,13.63
2022-09-20T01:06:16.831Z,13.59
2022-09-20T01:07:50.367Z,13.52
2022-09-20T01:09:21.831Z,13.52
2022-09-20T01:10:53.680Z,13.45
2022-09-20T01:12:27.353Z,13.41
2022-09-20T01:13:58.807Z,13.41
2022-09-20T01:15:31.271Z,13.43
2022-09-20T01:17:04.334Z,13.42
2022-09-20T01:18:37.588Z,13.37
2022-09-20T01:20:15.926Z,13.39
2022-09-20T01:21:48.629Z,13.43
2022-09-20T01:23:35.178Z,13.44
2022-09-20T01:25:09.712Z,13.47
2022-09-20T01:26:52.518Z,13.38
2022-09-20T01:28:26.358Z,13.37
2022-09-20T01:30:03.209Z,13.32
2022-09-20T01:31:35.902Z,13.34
2022-09-20T01:33:09.734Z,13.36
2022-09-20T01:34:45.460Z,13.36
2022-09-20T01:36:19.124Z,13.35
2022-09-20T01:37:59.419Z,13.31
2022-09-20T01:39:36.673Z,13.27
2022-09-20T01:41:12.345Z,13.29
2022-09-20T01:42:58.516Z,13.29
2022-09-20T01:44:35.984Z,13.34
2022-09-20T01:46:16.507Z,13.37
2022-09-20T01:47:52.503Z,13.39
2022-09-20T01:49:29.479Z,13.40
2022-09-20T01:51:11.291Z,13.38
2022-09-20T01:53:02.530Z,13.40
2022-09-20T01:54:58.273Z,13.45
2022-09-20T01:56:50.687Z,13.44
2022-09-20T01:58:33.853Z,13.46
2022-09-20T02:00:12.030Z,13.47
2022-09-20T02:01:59.988Z,13.46
2022-09-20T02:03:41.111Z,13.38
2022-09-20T02:05:18.861Z,13.35
2022-09-20T02:07:00.413Z,13.31
2022-09-20T02:08:42.151Z,13.29
2022-09-20T02:10:32.411Z,13.29
2022-09-20T02:12:17.888Z,13.29
2022-09-20T02:14:03.829Z,13.29
2022-09-20T02:15:50.280Z,13.27
2022-09-20T02:17:27.682Z,13.26
2022-09-20T02:19:26.643Z,13.32
2022-09-20T02:21:02.856Z,13.39
2022-09-20T02:22:41.179Z,13.47
2022-09-20T02:24:17.819Z,13.55
2022-09-20T02:25:56.128Z,13.61
2022-09-20T02:27:34.065Z,13.66
2022-09-20T02:29:13.554Z,13.69
2022-09-20T02:30:51.229Z,13.71
2022-09-20T02:32:29.090Z,13.61
2022-09-20T02:34:33.790Z,13.57
2022-09-20T02:36:11.838Z,13.52
2022-09-20T02:38:04.285Z,13.48
2022-09-20T02:39:36.594Z,13.43
2022-09-20T02:41:19.563Z,13.41
2022-09-20T02:42:55.045Z,13.41
2022-09-20T02:44:33.676Z,13.38
2022-09-20T02:46:09.066Z,13.35
2022-09-20T02:47:43.874Z,13.34
2022-09-20T02:49:22.204Z,13.33
2022-09-20T02:50:56.109Z,13.29
2022-09-20T02:52:32.226Z,13.26
2022-09-20T02:54:07.148Z,13.22
2022-09-20T02:55:42.117Z,13.24
2022-09-20T02:57:16.112Z,13.19
2022-09-20T02:58:53.232Z,13.22
2022-09-20T03:00:27.557Z,13.20
2022-09-20T03:02:05.095Z,13.19
2022-09-20T03:03:44.305Z,13.23
2022-09-20T03:05:18.988Z,13.20
2022-09-20T03:06:55.352Z,13.22
2022-09-20T03:08:31.745Z,13.22
2022-09-20T03:10:09.521Z,13.20
2022-09-20T03:11:46.183Z,13.24
2022-09-20T03:13:22.734Z,13.20
2022-09-20T03:15:00.254Z,13.22
2022-09-20T03:16:34.997Z,13.25
2022-09-20T03:18:09.715Z,13.26
2022-09-20T03:19:51.909Z,13.26
2022-09-20T03:21:29.192Z,13.26
2022-09-20T03:23:03.317Z,13.26
2022-09-20T03:24:40.069Z,13.27
2022-09-20T03:26:16.933Z,13.27
2022-09-20T03:27:55.712Z,13.26
2022-09-20T03:29:36.286Z,13.30
2022-09-20T03:31:13.169Z,13.39
2022-09-20T03:32:51.081Z,13.45
2022-09-20T03:34:36.769Z,13.49
2022-09-20T03:36:18.238Z,13.52
2022-09-20T03:38:05.866Z,13.53
2022-09-20T03:40:03.975Z,13.54
2022-09-20T03:41:47.078Z,13.56
2022-09-20T03:43:26.156Z,13.59
2022-09-20T03:45:15.096Z,13.53
2022-09-20T03:46:47.145Z,13.46
2022-09-20T03:48:29.598Z,13.37
2022-09-20T03:50:18.855Z,13.37
2022-09-20T03:51:58.906Z,13.37
2022-09-20T03:53:49.427Z,13.29
2022-09-20T03:55:36.498Z,13.26
2022-09-20T03:57:25.657Z,13.23
2022-09-20T03:59:15.559Z,13.23
2022-09-20T04:00:54.255Z,13.16
2022-09-20T04:02:52.452Z,13.12
2022-09-20T04:04:28.224Z,13.01
2022-09-20T04:06:04.406Z,12.96
2022-09-20T04:07:40.870Z,12.96
2022-09-20T04:09:25.612Z,12.97
2022-09-20T04:11:03.597Z,12.99
2022-09-20T04:12:40.888Z,13.02
2022-09-20T04:14:17.086Z,13.05
2022-09-20T04:15:55.511Z,13.10
2022-09-20T04:17:31.259Z,13.12
2022-09-20T04:19:09.692Z,13.11
2022-09-20T04:20:46.144Z,13.12
2022-09-20T04:22:19.644Z,13.11
2022-09-20T04:23:56.727Z,13.11
2022-09-20T04:25:32.063Z,13.13
2022-09-20T04:27:05.767Z,13.17
2022-09-20T04:28:40.836Z,13.20
2022-09-20T04:30:19.888Z,13.24
2022-09-20T04:31:55.520Z,13.32
2022-09-20T04:33:29.975Z,13.38
2022-09-20T04:35:24.145Z,13.45
2022-09-20T04:36:57.496Z,13.46
2022-09-20T04:38:29.372Z,13.44
2022-09-20T04:40:09.829Z,13.46
2022-09-20T04:41:59.306Z,13.44
2022-09-20T04:43:52.251Z,13.42
2022-09-20T04:45:37.120Z,13.42
2022-09-20T04:47:29.344Z,13.43
2022-09-20T04:49:17.250Z,13.42
2022-09-20T04:50:59.753Z,13.42
2022-09-20T04:52:51.635Z,13.40
2022-09-20T04:54:37.958Z,13.42
2022-09-20T04:56:19.571Z,13.40
2022-09-20T04:58:14.971Z,13.43
2022-09-20T05:00:00.056Z,13.43
2022-09-20T05:01:46.525Z,13.40
2022-09-20T05:03:39.168Z,13.31
2022-09-20T05:05:28.112Z,13.25
2022-09-20T05:07:16.860Z,13.18
2022-09-20T05:08:58.781Z,13.18
2022-09-20T05:10:41.986Z,13.19
2022-09-20T05:12:36.080Z,13.20
2022-09-20T05:14:24.765Z,13.20
2022-09-20T05:15:59.736Z,13.18
2022-09-20T05:17:37.132Z,13.19
2022-09-20T05:19:16.600Z,13.20
2022-09-20T05:20:57.359Z,13.24
2022-09-20T05:22:43.799Z,13.29
2022-09-20T05:24:21.907Z,13.31
2022-09-20T05:26:03.195Z,13.36
2022-09-20T05:27:41.961Z,13.33
2022-09-20T05:29:17.735Z,13.34
2022-09-20T05:30:50.524Z,13.34
2022-09-20T05:32:24.875Z,13.34
2022-09-20T05:34:01.877Z,13.35
2022-09-20T05:35:38.156Z,13.37
2022-09-20T05:37:16.511Z,13.40
2022-09-20T05:38:49.819Z,13.37
2022-09-20T05:40:26.989Z,13.27
2022-09-20T05:42:02.799Z,13.24
2022-09-20T05:43:39.659Z,13.23
2022-09-20T05:45:21.432Z,13.26
2022-09-20T05:47:00.508Z,13.30
2022-09-20T05:48:38.716Z,13.33
2022-09-20T05:50:20.421Z,13.36
2022-09-20T05:52:09.904Z,13.38
2022-09-20T05:53:57.984Z,13.43
2022-09-20T05:55:49.404Z,13.43
2022-09-20T05:57:26.435Z,13.44
2022-09-20T05:59:08.465Z,13.36
2022-09-20T06:00:43.376Z,13.32
2022-09-20T06:02:21.537Z,13.33
2022-09-20T06:03:55.695Z,13.33
2022-09-20T06:05:33.168Z,13.30
2022-09-20T06:07:09.109Z,13.30
2022-09-20T06:08:49.143Z,13.32
2022-09-20T06:10:31.569Z,13.35
2022-09-20T06:12:24.051Z,13.40
2022-09-20T06:14:03.532Z,13.36
2022-09-20T06:15:41.052Z,13.32
2022-09-20T06:17:19.068Z,13.36
2022-09-20T06:18:55.299Z,13.43
2022-09-20T06:20:29.115Z,13.48
2022-09-20T06:22:03.900Z,13.50
2022-09-20T06:23:36.102Z,13.52
2022-09-20T06:25:12.195Z,13.56
2022-09-20T06:26:45.219Z,13.58
2022-09-20T06:28:18.620Z,13.65
2022-09-20T06:29:53.202Z,13.70
2022-09-20T06:31:26.158Z,13.71
2022-09-20T06:32:58.702Z,13.76
2022-09-20T06:34:30.371Z,13.84
2022-09-20T06:36:24.595Z,13.87
2022-09-20T06:38:18.108Z,13.90
2022-09-20T06:40:12.202Z,13.90
2022-09-20T06:41:44.293Z,13.93
2022-09-20T06:43:16.251Z,13.92
2022-09-20T06:44:47.709Z,13.86
2022-09-20T06:46:19.374Z,13.87
2022-09-20T06:47:52.196Z,13.94
2022-09-20T06:49:28.963Z,14.01
2022-09-20T06:51:01.318Z,14.05
2022-09-20T06:52:34.490Z,14.06
2022-09-20T06:54:08.116Z,14.06
2022-09-20T06:55:40.874Z,14.07
2022-09-20T06:57:14.369Z,14.04
2022-09-20T06:58:45.870Z,14.06
2022-09-20T07:00:17.459Z,14.08
2022-09-20T07:01:48.951Z,14.13
2022-09-20T07:03:21.768Z,14.20
2022-09-20T07:04:58.030Z,14.28
2022-09-20T07:06:29.620Z,14.30
2022-09-20T07:08:01.429Z,14.31
2022-09-20T07:09:32.893Z,14.49
2022-09-20T07:11:05.195Z,14.40
2022-09-20T07:12:36.718Z,14.34
2022-09-20T07:14:08.235Z,14.28
2022-09-20T07:15:39.828Z,14.28
2022-09-20T07:17:11.442Z,14.27
2022-09-20T07:18:44.304Z,14.23
2022-09-20T07:20:19.494Z,14.20
2022-09-20T07:21:54.206Z,14.18
2022-09-20T07:23:26.007Z,14.18
2022-09-20T07:24:58.895Z,14.13
2022-09-20T07:26:30.999Z,14.07
2022-09-20T07:28:02.583Z,13.99
2022-09-20T07:29:35.198Z,13.96
2022-09-20T07:31:06.632Z,14.02
2022-09-20T07:32:38.598Z,14.07
2022-09-20T07:34:11.525Z,14.05
2022-09-20T07:35:43.017Z,14.10
2022-09-20T07:37:16.458Z,14.19
2022-09-20T07:38:48.521Z,14.29
2022-09-20T07:40:20.092Z,14.38
2022-09-20T07:41:51.676Z,14.55
2022-09-20T07:43:23.366Z,14.75
2022-09-20T07:44:55.811Z,14.86
2022-09-20T07:46:27.276Z,14.84
2022-09-20T07:47:59.525Z,14.77
2022-09-20T07:49:32.341Z,14.68
2022-09-20T07:51:08.719Z,14.71
2022-09-20T07:52:40.617Z,14.72
2022-09-20T07:54:12.093Z,14.67
2022-09-20T07:55:43.844Z,14.80
2022-09-20T07:57:15.262Z,14.85
2022-09-20T07:58:52.131Z,14.77
2022-09-20T08:00:24.097Z,14.74
2022-09-20T08:01:57.532Z,14.71
2022-09-20T08:03:29.492Z,14.63
2022-09-20T08:05:02.406Z,14.63
2022-09-20T08:06:35.725Z,14.63
2022-09-20T08:08:07.725Z,14.55
2022-09-20T08:09:39.251Z,14.55
2022-09-20T08:11:12.327Z,14.50
2022-09-20T08:14:36.680Z,14.73
2022-09-20T08:16:10.478Z,14.88
2022-09-20T08:17:41.987Z,14.84
2022-09-20T08:19:17.264Z,14.76
2022-09-20T08:20:50.898Z,14.76
2022-09-20T08:22:23.126Z,14.76
2022-09-20T08:23:54.625Z,14.74
2022-09-20T08:25:26.094Z,14.81
2022-09-20T08:26:57.644Z,14.88
2022-09-20T08:28:29.369Z,14.85
2022-09-20T08:30:02.603Z,14.97
2022-09-20T08:31:35.356Z,15.12
2022-09-20T08:33:07.009Z,15.36
2022-09-20T08:34:40.629Z,15.58
2022-09-20T08:36:14.414Z,15.56
2022-09-20T08:37:46.299Z,15.63
2022-09-20T08:41:11.110Z,16.09
2022-09-20T08:42:44.785Z,16.10
2022-09-20T08:44:18.672Z,16.10
2022-09-20T08:45:50.413Z,16.01
2022-09-20T08:47:23.595Z,15.96
2022-09-20T08:48:55.860Z,16.06
2022-09-20T08:50:27.995Z,16.02
2022-09-20T08:52:02.193Z,16.02
2022-09-20T08:53:34.339Z,16.01
2022-09-20T08:55:13.391Z,16.05
2022-09-20T08:56:46.550Z,16.25
2022-09-20T08:58:19.149Z,16.26
2022-09-20T08:59:50.660Z,16.14
2022-09-20T09:01:24.397Z,16.02
2022-09-20T09:02:57.057Z,15.98
2022-09-20T09:04:34.511Z,15.91
2022-09-20T09:06:14.186Z,15.92
2022-09-20T09:07:49.301Z,15.99
2022-09-20T09:09:23.182Z,16.04
2022-09-20T09:10:56.320Z,15.93
2022-09-20T09:12:30.421Z,15.75
2022-09-20T09:14:04.631Z,15.71
2022-09-20T09:15:37.708Z,15.83
2022-09-20T09:17:12.413Z,15.96
2022-09-20T09:18:44.816Z,16.14
2022-09-20T09:20:17.437Z,16.17
2022-09-20T09:21:51.854Z,16.04
2022-09-20T09:23:26.983Z,15.93
2022-09-20T09:25:22.398Z,15.84
2022-09-20T09:27:05.608Z,16.07
2022-09-20T09:28:37.065Z,16.28
2022-09-20T09:30:19.059Z,16.50
2022-09-20T09:31:51.735Z,16.75
2022-09-20T09:33:25.302Z,16.93
2022-09-20T09:34:57.386Z,17.09
2022-09-20T09:36:28.888Z,17.17
2022-09-20T09:38:01.248Z,17.33
2022-09-20T09:39:35.730Z,17.43
2022-09-20T09:41:26.098Z,17.48
2022-09-20T09:42:58.915Z,17.40
2022-09-20T09:44:35.434Z,17.29
2022-09-20T09:46:18.448Z,17.11
2022-09-20T09:47:49.982Z,17.03
2022-09-20T09:49:22.302Z,17.03
2022-09-20T09:51:07.366Z,17.13
2022-09-20T09:52:39.321Z,17.08
2022-09-20T09:54:16.752Z,17.00
2022-09-20T09:56:10.836Z,16.92
2022-09-20T09:57:53.990Z,16.91
2022-09-20T09:59:32.971Z,16.93
2022-09-20T10:01:07.726Z,16.77
2022-09-20T10:02:49.450Z,16.67
2022-09-20T10:04:23.827Z,16.75
2022-09-20T10:06:02.119Z,16.92
2022-09-20T10:07:39.100Z,17.02
2022-09-20T10:09:17.922Z,17.00
2022-09-20T10:10:59.390Z,16.91
2022-09-20T10:12:37.002Z,16.80
2022-09-20T10:14:19.803Z,16.65
2022-09-20T10:15:55.459Z,16.65
2022-09-20T10:17:45.864Z,16.61
2022-09-20T10:19:24.714Z,16.44
2022-09-20T10:21:04.702Z,16.32
2022-09-20T10:22:48.419Z,16.15
2022-09-20T10:24:34.110Z,15.97
2022-09-20T10:26:13.240Z,15.88
2022-09-20T10:27:54.994Z,15.85
2022-09-20T10:29:32.624Z,15.78
2022-09-20T10:31:09.770Z,15.71
2022-09-20T10:32:55.129Z,15.64
2022-09-20T10:34:41.238Z,15.31
2022-09-20T10:36:18.075Z,15.14
2022-09-20T10:38:00.787Z,15.03
2022-09-20T10:39:33.899Z,14.90
2022-09-20T10:41:35.611Z,14.73
2022-09-20T10:43:16.997Z,14.63
2022-09-20T10:45:02.552Z,14.71
2022-09-20T10:46:43.453Z,14.80
2022-09-20T10:48:22.059Z,14.78
2022-09-20T10:50:00.907Z,14.76
2022-09-20T10:51:39.627Z,14.71
2022-09-20T10:53:19.529Z,14.64
2022-09-20T10:54:57.935Z,14.69
2022-09-20T10:56:33.456Z,14.73
2022-09-20T10:58:30.483Z,14.69
2022-09-20T11:00:04.922Z,14.71
2022-09-20T11:01:41.058Z,14.82
2022-09-20T11:03:20.583Z,14.84
2022-09-20T11:05:02.030Z,15.04
2022-09-20T11:06:43.161Z,15.22
2022-09-20T11:08:16.139Z,15.40
2022-09-20T11:09:50.383Z,15.56
2022-09-20T11:11:24.255Z,15.55
2022-09-20T11:12:58.331Z,15.53
2022-09-20T11:14:34.453Z,15.64
2022-09-20T11:16:09.904Z,15.65
2022-09-20T11:17:43.942Z,15.75
2022-09-20T11:19:19.458Z,15.95
2022-09-20T11:20:56.272Z,16.07
2022-09-20T11:22:31.725Z,16.17
2022-09-20T11:24:07.379Z,16.38
2022-09-20T11:25:44.225Z,16.47
2022-09-20T11:27:18.791Z,16.55
2022-09-20T11:28:52.310Z,16.69
2022-09-20T11:30:25.207Z,16.75
2022-09-20T11:32:01.374Z,16.87
2022-09-20T11:33:40.733Z,17.00
2022-09-20T11:35:20.857Z,17.11
2022-09-20T11:36:54.554Z,17.13
2022-09-20T11:38:28.099Z,17.03
2022-09-20T11:40:01.061Z,16.95
2022-09-20T11:41:33.219Z,16.77
2022-09-20T11:43:06.390Z,16.89
2022-09-20T11:44:39.958Z,17.10
2022-09-20T11:46:14.846Z,17.32
2022-09-20T11:47:55.064Z,17.36
2022-09-20T11:49:29.573Z,17.21
2022-09-20T11:51:21.026Z,16.82
2022-09-20T11:52:59.027Z,16.67
2022-09-20T11:54:38.964Z,16.72
2022-09-20T11:56:14.319Z,16.83
2022-09-20T11:57:46.824Z,16.79
2022-09-20T11:59:25.820Z,16.95
2022-09-20T12:00:59.321Z,17.16
2022-09-20T12:02:35.467Z,17.10
2022-09-20T12:06:04.257Z,16.88
2022-09-20T12:07:38.105Z,16.90
2022-09-20T12:09:25.214Z,16.94
2022-09-20T12:10:58.556Z,17.09
2022-09-20T12:12:35.958Z,17.14
2022-09-20T12:14:16.792Z,17.21
2022-09-20T12:15:56.965Z,17.23
2022-09-20T12:17:47.211Z,17.07
2022-09-20T12:19:33.559Z,17.00
2022-09-20T12:21:15.304Z,16.87
2022-09-20T12:22:47.290Z,16.80
2022-09-20T12:24:20.920Z,16.66
2022-09-20T12:26:02.972Z,16.45
2022-09-20T12:27:52.559Z,16.33
2022-09-20T12:29:51.208Z,16.11
2022-09-20T12:31:38.530Z,15.97
2022-09-20T12:33:20.233Z,15.86
2022-09-20T12:34:52.580Z,15.82
2022-09-20T12:36:26.931Z,15.88
2022-09-20T12:38:16.502Z,15.99
2022-09-20T12:39:51.340Z,16.15
2022-09-20T12:41:28.229Z,16.32
2022-09-20T12:43:00.631Z,16.51
2022-09-20T12:44:35.083Z,16.55
2022-09-20T12:46:11.275Z,16.64
2022-09-20T12:47:51.105Z,16.69
2022-09-20T12:49:45.387Z,16.75
2022-09-20T12:51:38.141Z,16.83
2022-09-20T12:53:14.240Z,16.79
2022-09-20T12:54:50.088Z,16.67
2022-09-20T12:56:23.295Z,16.51
2022-09-20T12:57:58.441Z,16.50
2022-09-20T12:59:31.035Z,16.55
2022-09-20T13:01:21.086Z,16.57
2022-09-20T13:02:57.349Z,16.62
2022-09-20T13:04:51.482Z,16.68
2022-09-20T13:06:24.937Z,16.79
2022-09-20T13:08:00.315Z,16.87
2022-09-20T13:09:37.932Z,17.05
2022-09-20T13:11:17.288Z,17.23
2022-09-20T13:12:54.453Z,17.30
2022-09-20T13:14:27.728Z,17.43
2022-09-20T13:16:01.216Z,17.51
2022-09-20T13:17:34.225Z,17.59
2022-09-20T13:19:07.387Z,17.45
2022-09-20T13:20:41.599Z,17.43
2022-09-20T13:22:14.824Z,17.31
2022-09-20T13:23:48.592Z,17.37
2022-09-20T13:25:23.371Z,17.34
2022-09-20T13:27:01.840Z,17.27
2022-09-20T13:28:37.273Z,17.20
2022-09-20T13:30:09.905Z,17.12
2022-09-20T13:31:41.440Z,17.08
2022-09-20T13:33:17.445Z,17.18
2022-09-20T13:35:03.793Z,17.25
2022-09-20T13:36:38.705Z,17.51
2022-09-20T13:38:10.200Z,17.50
2022-09-20T13:39:41.937Z,17.55
2022-09-20T13:41:16.230Z,17.83
2022-09-20T13:42:48.581Z,18.25
2022-09-20T13:44:20.145Z,18.67
2022-09-20T13:45:53.480Z,18.95
2022-09-20T13:47:26.317Z,19.24
2022-09-20T13:49:13.092Z,19.55
2022-09-20T13:50:48.066Z,19.95
2022-09-20T13:52:25.991Z,20.01
2022-09-20T13:54:18.111Z,20.17
2022-09-20T13:55:53.339Z,20.25
2022-09-20T13:57:31.788Z,20.08
2022-09-20T13:59:05.373Z,20.18
2022-09-20T14:00:37.877Z,20.31
2022-09-20T14:02:19.614Z,20.44
2022-09-20T14:03:52.861Z,20.53
2022-09-20T14:05:26.387Z,20.60
2022-09-20T14:06:59.774Z,20.69
2022-09-20T14:08:33.623Z,20.76
2022-09-20T14:10:25.556Z,20.78
2022-09-20T14:11:58.501Z,20.80
2022-09-20T14:13:33.466Z,20.50
2022-09-20T14:15:08.476Z,20.20
2022-09-20T14:16:41.545Z,19.99
2022-09-20T14:18:15.146Z,19.77
2022-09-20T14:19:50.949Z,19.47
2022-09-20T14:21:24.314Z,19.13
2022-09-20T14:22:59.044Z,18.97
2022-09-20T14:24:33.975Z,18.93
2022-09-20T14:26:05.905Z,19.01
2022-09-20T14:27:37.402Z,19.13
2022-09-20T14:29:27.182Z,19.23
2022-09-20T14:31:06.416Z,19.62
2022-09-20T14:32:39.471Z,19.97
2022-09-20T14:34:12.646Z,20.05
2022-09-20T14:35:48.661Z,20.03
2022-09-20T14:37:23.790Z,20.12
2022-09-20T14:38:56.717Z,20.31
2022-09-20T14:40:30.354Z,20.16
2022-09-20T14:42:01.978Z,20.10
2022-09-20T14:43:35.420Z,19.96
2022-09-20T14:45:07.898Z,19.88
2022-09-20T14:46:40.889Z,20.02
2022-09-20T14:48:27.529Z,20.25
2022-09-20T14:49:59.096Z,20.48
2022-09-20T14:51:30.586Z,20.55
2022-09-20T14:53:04.689Z,20.59
2022-09-20T14:54:36.403Z,20.70
2022-09-20T14:56:09.639Z,20.56
2022-09-20T14:57:42.229Z,20.23
2022-09-20T14:59:21.364Z,20.13
2022-09-20T15:00:54.148Z,19.82
2022-09-20T15:02:27.403Z,19.81
2022-09-20T15:03:59.399Z,19.84
2022-09-20T15:05:31.428Z,19.84
2022-09-20T15:07:04.628Z,19.82
2022-09-20T15:08:36.613Z,19.73
2022-09-20T15:10:12.050Z,19.61
2022-09-20T15:11:43.579Z,19.71
2022-09-20T15:13:16.568Z,19.71
2022-09-20T15:14:48.384Z,19.60
2022-09-20T15:16:20.422Z,19.59
2022-09-20T15:17:53.380Z,19.57
2022-09-20T15:19:24.984Z,19.36
2022-09-20T15:20:56.427Z,19.28
2022-09-20T15:22:28.025Z,19.10
2022-09-20T15:23:59.444Z,18.84
2022-09-20T15:25:30.914Z,18.58
2022-09-20T15:27:02.366Z,18.36
2022-09-20T15:28:34.425Z,18.34
2022-09-20T15:30:08.871Z,18.40
2022-09-20T15:31:40.418Z,18.49
2022-09-20T15:33:13.651Z,18.54
2022-09-20T15:34:45.360Z,18.55
2022-09-20T15:36:17.053Z,18.59
2022-09-20T15:37:48.882Z,18.66
2022-09-20T15:39:22.234Z,18.61
2022-09-20T15:40:54.334Z,18.49
2022-09-20T15:42:25.823Z,18.30
2022-09-20T15:43:57.257Z,18.12
2022-09-20T15:45:29.118Z,18.15
2022-09-20T15:47:01.571Z,18.15
2022-09-20T15:48:37.592Z,18.17
2022-09-20T15:50:09.828Z,18.35
2022-09-20T15:51:41.349Z,18.43
2022-09-20T15:53:12.907Z,18.36
2022-09-20T15:54:44.427Z,18.32
2022-09-20T15:56:17.039Z,18.16
2022-09-20T15:57:51.547Z,18.17
2022-09-20T15:59:23.313Z,18.08
2022-09-20T16:00:55.432Z,17.96
2022-09-20T16:02:27.501Z,17.96
2022-09-20T16:04:04.507Z,17.93
2022-09-20T16:05:36.804Z,17.88
2022-09-20T16:07:10.163Z,17.85
2022-09-20T16:08:42.347Z,17.84
2022-09-20T16:10:13.902Z,17.77
2022-09-20T16:11:45.735Z,17.83
2022-09-20T16:13:17.227Z,17.76
2022-09-20T16:14:48.782Z,17.82
2022-09-20T16:16:20.676Z,17.92
2022-09-20T16:18:10.735Z,18.03
2022-09-20T16:19:48.599Z,18.18
2022-09-20T16:21:20.123Z,18.26
2022-09-20T16:22:51.645Z,18.27
2022-09-20T16:24:23.443Z,18.23
2022-09-20T16:25:54.941Z,18.26
2022-09-20T16:27:26.425Z,18.29
2022-09-20T16:28:58.101Z,18.27
2022-09-20T16:30:29.813Z,18.14
2022-09-20T16:32:03.540Z,18.14
2022-09-20T16:33:35.693Z,18.12
2022-09-20T16:35:09.247Z,18.15
2022-09-20T16:36:44.367Z,18.18
2022-09-20T16:38:16.088Z,18.23
2022-09-20T16:39:47.645Z,18.22
2022-09-20T16:41:19.141Z,18.27
2022-09-20T16:42:52.423Z,18.30
2022-09-20T16:44:24.394Z,18.27
2022-09-20T16:45:59.410Z,18.27
2022-09-20T16:47:31.388Z,18.23
2022-09-20T16:49:03.995Z,18.16
2022-09-20T16:50:36.844Z,18.10
2022-09-20T16:52:09.357Z,18.05
2022-09-20T16:53:41.089Z,17.94
2022-09-20T16:55:13.070Z,17.81
2022-09-20T16:56:46.329Z,17.66
2022-09-20T16:58:17.953Z,17.64
2022-09-20T16:59:51.759Z,17.56
2022-09-20T17:01:23.288Z,17.48
2022-09-20T17:02:54.883Z,17.50
2022-09-20T17:04:26.425Z,17.50
2022-09-20T17:06:02.424Z,17.50
2022-09-20T17:07:34.255Z,17.52
2022-09-20T17:09:06.401Z,17.59
2022-09-20T17:10:37.839Z,17.57
2022-09-20T17:12:09.692Z,17.53
2022-09-20T17:13:42.558Z,17.57
2022-09-20T17:15:14.146Z,17.61
2022-09-20T17:16:49.408Z,17.63
2022-09-20T17:18:21.014Z,17.62
2022-09-20T17:19:52.599Z,17.62
2022-09-20T17:21:26.365Z,17.58
2022-09-20T17:22:58.096Z,17.52
2022-09-20T17:24:30.142Z,17.50
2022-09-20T17:26:04.880Z,17.41
2022-09-20T17:27:39.729Z,17.25
2022-09-20T17:29:13.859Z,17.17
2022-09-20T17:30:45.308Z,17.19
2022-09-20T17:32:17.432Z,17.10
2022-09-20T17:33:49.116Z,17.04
2022-09-20T17:35:20.508Z,17.09
2022-09-20T17:36:55.187Z,17.06
2022-09-20T17:38:27.164Z,16.98
2022-09-20T17:40:01.850Z,16.96
2022-09-20T17:41:33.995Z,16.89
2022-09-20T17:43:05.475Z,16.78
2022-09-20T17:44:37.896Z,16.67
2022-09-20T17:46:11.471Z,16.62
2022-09-20T17:47:44.210Z,16.58
2022-09-20T17:49:18.101Z,16.62
2022-09-20T17:50:54.751Z,16.59
2022-09-20T17:52:27.564Z,16.63
2022-09-20T17:53:59.113Z,16.63
2022-09-20T17:55:30.648Z,16.46
2022-09-20T17:57:02.087Z,16.47
2022-09-20T17:58:34.064Z,16.42
2022-09-20T18:00:06.193Z,16.32
2022-09-20T18:01:38.699Z,16.35
2022-09-20T18:03:10.167Z,16.37
2022-09-20T18:04:42.523Z,16.39
2022-09-20T18:06:15.694Z,16.42
2022-09-20T18:07:51.515Z,16.41
2022-09-20T18:09:24.242Z,16.42
2022-09-20T18:10:56.441Z,16.40
2022-09-20T18:12:27.962Z,16.32
2022-09-20T18:14:00.199Z,16.26
2022-09-20T18:15:32.055Z,16.22
2022-09-20T18:17:03.567Z,16.13
2022-09-20T18:18:35.132Z,16.11
2022-09-20T18:20:07.275Z,16.06
2022-09-20T18:21:39.231Z,15.97
2022-09-20T18:23:12.076Z,15.91
2022-09-20T18:24:43.565Z,15.88
2022-09-20T18:26:24.565Z,15.89
2022-09-20T18:27:56.487Z,15.85
2022-09-20T18:29:29.070Z,15.83
2022-09-20T18:31:01.760Z,15.80
2022-09-20T18:32:33.282Z,15.83
2022-09-20T18:34:05.731Z,15.84
2022-09-20T18:35:42.781Z,15.84
2022-09-20T18:37:17.038Z,15.85
2022-09-20T18:38:52.969Z,15.86
2022-09-20T18:40:24.614Z,15.88
2022-09-20T18:41:56.160Z,15.90
2022-09-20T18:45:26.419Z,15.76
2022-09-20T18:46:58.606Z,15.72
2022-09-20T18:48:32.512Z,15.68
2022-09-20T18:50:04.442Z,15.66
2022-09-20T18:51:39.668Z,15.67
2022-09-20T18:53:12.589Z,15.65
2022-09-20T18:54:45.427Z,15.63
2022-09-20T18:56:22.488Z,15.59
2022-09-20T18:57:58.202Z,15.49
2022-09-20T18:59:32.380Z,15.42
2022-09-20T19:01:12.887Z,15.39
2022-09-20T19:02:57.241Z,15.34
2022-09-20T19:04:49.779Z,15.35
2022-09-20T19:06:23.695Z,15.32
2022-09-20T19:08:02.346Z,15.34
2022-09-20T19:09:36.742Z,15.31
2022-09-20T19:11:11.661Z,15.28
2022-09-20T19:12:48.382Z,15.26
2022-09-20T19:14:24.442Z,15.26
2022-09-20T19:16:11.182Z,15.23
2022-09-20T19:17:55.670Z,15.25
2022-09-20T19:19:38.518Z,15.27
2022-09-20T19:21:19.889Z,15.29
2022-09-20T19:22:58.911Z,15.33
2022-09-20T19:24:40.209Z,15.38
2022-09-20T19:26:19.411Z,15.40
2022-09-20T19:27:52.297Z,15.40
2022-09-20T19:29:27.694Z,15.42
2022-09-20T19:30:59.467Z,15.43
2022-09-20T19:32:31.362Z,15.42
2022-09-20T19:34:07.177Z,15.43
2022-09-20T19:35:43.372Z,15.42
2022-09-20T19:37:19.869Z,15.38
2022-09-20T19:38:57.546Z,15.38
2022-09-20T19:40:39.507Z,15.36
2022-09-20T19:42:22.429Z,15.36
2022-09-20T19:44:02.138Z,15.35
2022-09-20T19:45:39.521Z,15.36
2022-09-20T19:47:20.969Z,15.32
2022-09-20T19:48:56.801Z,15.30
2022-09-20T19:50:36.082Z,15.29
2022-09-20T19:52:09.309Z,15.25
2022-09-20T19:53:41.059Z,15.23
2022-09-20T19:55:13.463Z,15.22
2022-09-20T19:56:52.905Z,15.22
2022-09-20T19:58:29.144Z,15.22
2022-09-20T20:00:00.970Z,15.21
2022-09-20T20:01:36.010Z,15.20
2022-09-20T20:03:07.828Z,15.15
2022-09-20T20:04:39.526Z,15.16
2022-09-20T20:06:18.890Z,15.14
2022-09-20T20:07:55.336Z,15.08
2022-09-20T20:09:32.496Z,14.98
2022-09-20T20:11:09.686Z,14.87
2022-09-20T20:12:44.582Z,14.80
2022-09-20T20:14:21.014Z,14.80
2022-09-20T20:15:57.316Z,14.81
2022-09-20T20:17:36.947Z,14.81
2022-09-20T20:19:14.466Z,14.85
2022-09-20T20:20:58.643Z,14.87
2022-09-20T20:22:40.012Z,14.89
2022-09-20T20:24:19.905Z,14.91
2022-09-20T20:25:55.488Z,14.93
2022-09-20T20:27:28.514Z,14.96
2022-09-20T20:29:00.033Z,14.96
2022-09-20T20:30:33.709Z,14.96
2022-09-20T20:32:05.287Z,14.91
2022-09-20T20:33:37.127Z,14.88
2022-09-20T20:35:15.634Z,14.85
2022-09-20T20:36:50.063Z,14.84
2022-09-20T20:38:26.236Z,14.82
2022-09-20T20:39:57.812Z,14.81
2022-09-20T20:41:31.811Z,14.83
2022-09-20T20:43:03.359Z,14.84
2022-09-20T20:44:34.946Z,14.86
2022-09-20T20:46:12.080Z,14.86
2022-09-20T20:47:44.005Z,14.87
2022-09-20T20:49:15.761Z,14.86